createdAt,value
2023-02-22T00:00:18.990Z,11.50
2023-02-22T00:03:00.169Z,14.10
2023-02-22T00:05:31.869Z,9.93
2023-02-22T00:08:03.588Z,12.20
2023-02-22T00:10:38.382Z,10.23
2023-02-22T00:13:13.202Z,11.17
2023-02-22T00:15:45.598Z,10.50
2023-02-22T00:18:19.678Z,9.50
2023-02-22T00:20:51.444Z,11.43
2023-02-22T00:23:23.362Z,10.30
2023-02-22T00:25:56.440Z,10.75
2023-02-22T00:28:28.121Z,13.27
2023-02-22T00:30:59.954Z,11.20
2023-02-22T00:33:32.320Z,10.40
2023-02-22T00:36:04.206Z,10.30
2023-02-22T00:38:35.989Z,11.97
2023-02-22T00:41:08.199Z,17.73
2023-02-22T00:43:40.016Z,29.43
2023-02-22T00:46:13.916Z,12.13
2023-02-22T00:48:45.727Z,14.23
2023-02-22T00:51:17.756Z,20.03
2023-02-22T00:53:49.676Z,20.53
2023-02-22T00:56:21.489Z,16.37
2023-02-22T00:58:53.208Z,22.90
2023-02-22T01:01:24.960Z,19.47
2023-02-22T01:03:56.751Z,15.47
2023-02-22T01:06:29.367Z,18.23
2023-02-22T01:09:02.359Z,16.60
2023-02-22T01:11:34.307Z,12.70
2023-02-22T01:14:09.583Z,18.80
2023-02-22T01:16:41.385Z,14.43
2023-02-22T01:19:13.527Z,17.13
2023-02-22T01:21:45.272Z,13.63
2023-02-22T01:24:18.187Z,12.60
2023-02-22T01:26:52.580Z,13.43
2023-02-22T01:29:24.284Z,16.10
2023-02-22T01:31:56.832Z,14.30
2023-02-22T01:34:30.157Z,15.00
2023-02-22T01:37:01.829Z,11.03
2023-02-22T01:39:33.807Z,14.73
2023-02-22T01:42:05.813Z,11.07
2023-02-22T01:44:41.466Z,13.20
2023-02-22T01:47:13.134Z,11.90
2023-02-22T01:49:50.006Z,14.13
2023-02-22T01:52:22.729Z,11.60
2023-02-22T01:54:58.664Z,13.27
2023-02-22T01:57:35.324Z,11.07
2023-02-22T02:00:11.221Z,12.73
2023-02-22T02:02:54.606Z,11.07
2023-02-22T02:05:31.478Z,10.07
2023-02-22T02:08:17.036Z,13.63
2023-02-22T02:10:49.442Z,19.07
2023-02-22T02:13:21.460Z,12.20
2023-02-22T02:15:55.527Z,12.93
2023-02-22T02:18:28.587Z,14.30
2023-02-22T02:21:31.963Z,11.10
2023-02-22T02:24:28.455Z,8.70
2023-02-22T02:27:16.226Z,13.27
2023-02-22T02:29:50.655Z,9.23
2023-02-22T02:32:50.532Z,11.90
2023-02-22T02:35:30.268Z,11.20
2023-02-22T02:38:21.249Z,8.80
2023-02-22T02:41:05.180Z,12.30
2023-02-22T02:43:55.418Z,11.47
2023-02-22T02:46:40.184Z,10.40
2023-02-22T02:49:30.163Z,18.30
2023-02-22T02:52:03.892Z,8.80
2023-02-22T02:54:38.105Z,11.70
2023-02-22T02:57:10.341Z,9.23
2023-02-22T02:59:42.127Z,13.27
2023-02-22T03:02:34.159Z,8.37
2023-02-22T03:05:16.118Z,11.20
2023-02-22T03:08:00.532Z,13.60
2023-02-22T03:10:55.505Z,13.30
2023-02-22T03:13:49.226Z,15.27
2023-02-22T03:16:55.094Z,9.63
2023-02-22T03:19:42.752Z,12.20
2023-02-22T03:22:24.946Z,10.53
2023-02-22T03:25:07.053Z,8.77
2023-02-22T03:27:47.309Z,13.83
2023-02-22T03:31:08.349Z,9.43
2023-02-22T03:33:46.152Z,11.63
2023-02-22T03:36:40.851Z,10.10
2023-02-22T03:39:16.062Z,8.90
2023-02-22T03:41:51.516Z,10.63
2023-02-22T03:44:27.474Z,10.03
2023-02-22T03:47:04.320Z,11.50
2023-02-22T03:50:01.947Z,10.00
2023-02-22T03:52:35.633Z,11.20
2023-02-22T03:55:11.136Z,12.83
2023-02-22T03:57:46.768Z,10.40
2023-02-22T04:00:23.564Z,11.80
2023-02-22T04:02:55.400Z,23.60
2023-02-22T04:05:27.209Z,16.52
2023-02-22T04:07:59.300Z,18.67
2023-02-22T04:10:31.694Z,19.40
2023-02-22T04:13:04.031Z,12.87
2023-02-22T04:15:36.273Z,18.83
2023-02-22T04:18:08.016Z,14.20
2023-02-22T04:20:39.728Z,17.13
2023-02-22T04:23:11.636Z,18.77
2023-02-22T04:25:43.466Z,22.83
2023-02-22T04:28:15.387Z,16.77
2023-02-22T04:30:47.351Z,17.40
2023-02-22T04:33:19.103Z,14.40
2023-02-22T04:35:51.645Z,14.10
2023-02-22T04:38:26.065Z,22.27
2023-02-22T04:40:57.866Z,17.77
2023-02-22T04:43:29.684Z,16.00
2023-02-22T04:46:01.457Z,17.37
2023-02-22T04:48:33.212Z,17.80
2023-02-22T04:51:05.567Z,15.50
2023-02-22T04:53:37.291Z,16.17
2023-02-22T04:56:09.159Z,16.10
2023-02-22T04:58:40.817Z,17.67
2023-02-22T05:01:12.547Z,18.93
2023-02-22T05:03:44.383Z,16.97
2023-02-22T05:06:18.171Z,15.77
2023-02-22T05:08:49.926Z,10.90
2023-02-22T05:11:22.265Z,14.63
2023-02-22T05:13:54.051Z,14.23
2023-02-22T05:16:26.449Z,13.13
2023-02-22T05:18:58.226Z,11.93
2023-02-22T05:21:29.922Z,14.43
2023-02-22T05:24:01.834Z,13.50
2023-02-22T05:26:33.932Z,13.10
2023-02-22T05:29:05.827Z,15.53
2023-02-22T05:31:37.777Z,11.33
2023-02-22T05:34:09.507Z,13.10
2023-02-22T05:36:41.298Z,15.23
2023-02-22T05:39:13.164Z,19.03
2023-02-22T05:41:44.961Z,12.47
2023-02-22T05:44:17.016Z,17.70
2023-02-22T05:46:48.730Z,12.73
2023-02-22T05:49:20.575Z,15.50
2023-02-22T05:51:52.376Z,17.40
2023-02-22T05:54:24.137Z,14.55
2023-02-22T05:56:55.914Z,12.30
2023-02-22T05:59:29.345Z,11.50
2023-02-22T06:02:02.198Z,14.50
2023-02-22T06:04:33.865Z,14.87
2023-02-22T06:07:06.425Z,16.70
2023-02-22T06:09:38.198Z,15.20
2023-02-22T06:12:10.169Z,19.60
2023-02-22T06:14:45.878Z,19.97
2023-02-22T06:17:19.297Z,15.53
2023-02-22T06:19:52.286Z,14.00
2023-02-22T06:22:24.077Z,21.73
2023-02-22T06:24:55.791Z,14.27
2023-02-22T06:27:31.683Z,13.10
2023-02-22T06:30:04.003Z,11.20
2023-02-22T06:32:35.685Z,12.60
2023-02-22T06:35:08.384Z,15.27
2023-02-22T06:37:40.392Z,22.00
2023-02-22T06:40:12.991Z,20.27
2023-02-22T06:42:47.318Z,19.73
2023-02-22T06:45:19.237Z,18.57
2023-02-22T06:47:50.992Z,13.77
2023-02-22T06:50:29.036Z,15.90
2023-02-22T06:53:00.749Z,15.60
2023-02-22T06:55:33.912Z,13.90
2023-02-22T06:58:05.724Z,20.27
2023-02-22T07:00:37.525Z,11.73
2023-02-22T07:03:10.932Z,15.00
2023-02-22T07:05:43.009Z,10.43
2023-02-22T07:08:14.756Z,12.83
2023-02-22T07:10:46.496Z,11.63
2023-02-22T07:13:18.289Z,12.40
2023-02-22T07:15:50.072Z,10.30
2023-02-22T07:18:21.796Z,16.23
2023-02-22T07:20:54.303Z,11.73
2023-02-22T07:23:27.063Z,10.47
2023-02-22T07:26:01.818Z,12.50
2023-02-22T07:28:33.516Z,18.00
2023-02-22T07:31:05.245Z,11.23
2023-02-22T07:33:36.953Z,14.10
2023-02-22T07:36:09.263Z,11.43
2023-02-22T07:38:41.038Z,11.57
2023-02-22T07:41:13.388Z,13.10
2023-02-22T07:43:45.134Z,11.30
2023-02-22T07:46:16.882Z,12.33
2023-02-22T07:48:48.642Z,12.00
2023-02-22T07:51:20.814Z,13.57
2023-02-22T07:53:53.051Z,14.33
2023-02-22T07:56:24.882Z,13.30
2023-02-22T07:58:56.641Z,12.33
2023-02-22T08:01:28.439Z,19.60
2023-02-22T08:04:00.293Z,14.60
2023-02-22T08:06:32.209Z,15.00
2023-02-22T08:09:05.013Z,16.13
2023-02-22T08:11:36.717Z,12.80
2023-02-22T08:14:08.615Z,11.73
2023-02-22T08:16:40.408Z,12.53
2023-02-22T08:19:12.184Z,14.07
2023-02-22T08:21:44.657Z,10.63
2023-02-22T08:24:16.357Z,12.17
2023-02-22T08:26:48.273Z,15.77
2023-02-22T08:29:20.019Z,16.77
2023-02-22T08:31:54.123Z,14.67
2023-02-22T08:34:26.313Z,14.73
2023-02-22T08:37:00.114Z,16.60
2023-02-22T08:39:31.876Z,12.90
2023-02-22T08:42:03.649Z,11.13
2023-02-22T08:44:36.409Z,13.70
2023-02-22T08:47:08.140Z,12.10
2023-02-22T08:49:40.007Z,15.57
2023-02-22T08:52:11.730Z,17.73
2023-02-22T08:54:45.558Z,9.90
2023-02-22T08:57:17.297Z,9.10
2023-02-22T08:59:49.087Z,20.57
2023-02-22T09:02:22.247Z,12.17
2023-02-22T09:04:53.972Z,9.63
2023-02-22T09:07:25.667Z,10.27
2023-02-22T09:09:57.358Z,11.00
2023-02-22T09:12:29.107Z,13.85
2023-02-22T09:15:00.758Z,9.50
2023-02-22T09:17:32.520Z,8.87
2023-02-22T09:20:05.972Z,15.80
2023-02-22T09:22:37.940Z,11.83
2023-02-22T09:25:16.734Z,7.87
2023-02-22T09:27:51.131Z,11.90
2023-02-22T09:30:33.241Z,16.23
2023-02-22T09:33:12.356Z,7.33
2023-02-22T09:35:49.807Z,8.13
2023-02-22T09:38:24.711Z,15.70
2023-02-22T09:41:06.783Z,8.43
2023-02-22T09:43:41.978Z,9.20
2023-02-22T09:46:20.128Z,5.63
2023-02-22T09:49:07.758Z,6.60
2023-02-22T09:51:59.811Z,5.60
2023-02-22T09:55:04.733Z,6.20
2023-02-22T09:57:41.886Z,6.57
2023-02-22T10:00:18.803Z,5.77
2023-02-22T10:02:50.496Z,8.67
2023-02-22T10:05:33.768Z,6.80
2023-02-22T10:08:13.577Z,6.57
2023-02-22T10:10:52.501Z,6.00
2023-02-22T10:14:09.672Z,7.53
2023-02-22T10:17:08.419Z,5.07
2023-02-22T10:19:42.784Z,5.30
2023-02-22T10:22:37.399Z,4.80
2023-02-22T10:25:15.076Z,7.50
2023-02-22T10:28:13.466Z,5.87
2023-02-22T10:31:01.203Z,5.82
2023-02-22T10:33:46.210Z,6.50
2023-02-22T10:36:23.788Z,6.37
2023-02-22T10:39:32.989Z,6.70
2023-02-22T10:42:06.964Z,5.37
2023-02-22T10:44:40.518Z,5.73
2023-02-22T10:47:17.892Z,6.70
2023-02-22T10:49:55.590Z,6.40
2023-02-22T10:52:31.578Z,5.13
2023-02-22T10:55:15.342Z,5.07
2023-02-22T10:57:50.677Z,6.67
2023-02-22T11:00:31.008Z,6.13
2023-02-22T11:03:16.995Z,8.20
2023-02-22T11:05:49.940Z,12.77
2023-02-22T11:08:21.659Z,7.43
2023-02-22T11:10:56.533Z,7.00
2023-02-22T11:13:34.109Z,8.20
2023-02-22T11:16:43.827Z,7.57
2023-02-22T11:19:25.628Z,5.40
2023-02-22T11:22:14.820Z,13.00
2023-02-22T11:25:04.243Z,9.77
2023-02-22T11:27:41.237Z,5.73
2023-02-22T11:30:25.280Z,8.90
2023-02-22T11:33:06.113Z,6.20
2023-02-22T11:35:52.710Z,8.00
2023-02-22T11:38:36.875Z,7.13
2023-02-22T11:41:34.988Z,6.27
2023-02-22T11:44:23.764Z,8.17
2023-02-22T11:47:01.376Z,6.03
2023-02-22T11:49:38.885Z,11.70
2023-02-22T11:52:37.304Z,7.37
2023-02-22T11:55:42.693Z,7.80
2023-02-22T11:58:40.882Z,8.20
2023-02-22T12:01:33.725Z,14.60
2023-02-22T12:04:50.196Z,15.90
2023-02-22T12:07:31.093Z,10.40
2023-02-22T12:10:29.335Z,10.63
2023-02-22T12:13:27.168Z,11.97
2023-02-22T12:16:23.491Z,11.07
2023-02-22T12:18:58.013Z,8.23
2023-02-22T12:21:34.288Z,8.50
2023-02-22T12:24:18.583Z,10.80
2023-02-22T12:27:05.673Z,12.67
2023-02-22T12:29:45.117Z,16.50
2023-02-22T12:32:50.690Z,12.90
2023-02-22T12:35:40.314Z,11.90
2023-02-22T12:38:39.557Z,10.93
2023-02-22T12:41:30.227Z,14.70
2023-02-22T12:44:20.334Z,15.57
2023-02-22T12:46:58.318Z,10.93
2023-02-22T12:49:49.608Z,13.13
2023-02-22T12:52:27.281Z,13.90
2023-02-22T12:55:15.144Z,16.90
2023-02-22T12:57:49.237Z,13.70
2023-02-22T13:00:41.727Z,14.27
2023-02-22T13:03:31.987Z,11.47
2023-02-22T13:06:45.113Z,19.27
2023-02-22T13:09:50.932Z,13.00
2023-02-22T13:12:37.380Z,13.90
2023-02-22T13:15:33.112Z,15.20
2023-02-22T13:18:34.345Z,12.63
2023-02-22T13:21:35.108Z,13.10
2023-02-22T13:24:35.590Z,19.83
2023-02-22T13:27:21.444Z,15.47
2023-02-22T13:30:01.458Z,14.00
2023-02-22T13:32:52.341Z,13.63
2023-02-22T13:35:35.335Z,16.83
2023-02-22T13:38:21.881Z,15.70
2023-02-22T13:41:04.629Z,17.00
2023-02-22T13:43:49.257Z,18.37
2023-02-22T13:46:48.291Z,12.83
2023-02-22T13:49:42.500Z,13.70
2023-02-22T13:52:19.333Z,16.00
2023-02-22T13:54:55.695Z,15.27
2023-02-22T13:57:39.413Z,12.90
2023-02-22T14:00:21.051Z,16.60
2023-02-22T14:03:01.490Z,23.40
2023-02-22T14:05:44.854Z,14.73
2023-02-22T14:08:19.399Z,18.23
2023-02-22T14:11:01.744Z,16.77
2023-02-22T14:13:55.177Z,13.40
2023-02-22T14:16:28.410Z,14.87
2023-02-22T14:19:14.314Z,18.50
2023-02-22T14:22:03.456Z,19.57
2023-02-22T14:24:47.467Z,20.17
2023-02-22T14:27:19.221Z,17.37
2023-02-22T14:29:54.314Z,20.37
2023-02-22T14:32:34.744Z,15.17
2023-02-22T14:35:26.563Z,17.83
2023-02-22T14:38:02.921Z,20.60
2023-02-22T14:40:37.696Z,31.47
2023-02-22T14:43:20.869Z,26.83
2023-02-22T14:45:56.012Z,14.50
2023-02-22T14:48:39.432Z,15.33
2023-02-22T14:51:49.215Z,13.70
2023-02-22T14:54:26.863Z,13.30
2023-02-22T14:57:14.734Z,15.40
2023-02-22T14:59:57.669Z,18.17
2023-02-22T15:02:38.913Z,14.20
2023-02-22T15:05:14.992Z,18.25
2023-02-22T15:08:02.057Z,16.40
2023-02-22T15:10:36.584Z,16.10
2023-02-22T15:13:14.809Z,20.60
2023-02-22T15:16:08.724Z,12.67
2023-02-22T15:18:43.110Z,16.90
2023-02-22T15:21:20.692Z,13.37
2023-02-22T15:23:56.246Z,13.80
2023-02-22T15:26:35.401Z,11.37
2023-02-22T15:29:20.362Z,14.10
2023-02-22T15:31:53.684Z,16.03
2023-02-22T15:34:29.729Z,14.30
2023-02-22T15:37:25.368Z,13.15
2023-02-22T15:40:14.737Z,14.93
2023-02-22T15:42:58.305Z,13.00
2023-02-22T15:45:32.407Z,16.00
2023-02-22T15:48:04.554Z,16.40
2023-02-22T15:50:37.570Z,15.83
2023-02-22T15:53:28.085Z,16.50
2023-02-22T15:56:03.822Z,12.90
2023-02-22T15:58:36.406Z,16.30
2023-02-22T16:01:12.413Z,15.77
2023-02-22T16:03:53.990Z,13.00
2023-02-22T16:06:30.616Z,17.00
2023-02-22T16:09:15.840Z,15.57
2023-02-22T16:11:47.837Z,22.77
2023-02-22T16:14:44.930Z,12.57
2023-02-22T16:17:29.593Z,16.47
2023-02-22T16:20:22.045Z,17.03
2023-02-22T16:22:57.792Z,15.60
2023-02-22T16:25:35.671Z,15.10
2023-02-22T16:28:33.991Z,16.20
2023-02-22T16:31:05.888Z,16.20
2023-02-22T16:33:39.972Z,12.97
2023-02-22T16:36:12.886Z,11.93
2023-02-22T16:38:48.172Z,12.10
2023-02-22T16:41:19.982Z,12.43
2023-02-22T16:43:51.829Z,12.87
2023-02-22T16:46:23.578Z,14.70
2023-02-22T16:48:55.301Z,8.33
2023-02-22T16:51:28.485Z,10.93
2023-02-22T16:54:00.232Z,11.47
2023-02-22T16:56:34.255Z,9.43
2023-02-22T16:59:11.386Z,8.80
2023-02-22T17:01:43.366Z,10.97
2023-02-22T17:04:17.932Z,10.30
2023-02-22T17:06:50.141Z,7.30
2023-02-22T17:09:22.005Z,8.60
2023-02-22T17:11:55.335Z,8.27
2023-02-22T17:14:34.547Z,8.30
2023-02-22T17:17:06.877Z,8.60
2023-02-22T17:19:38.888Z,10.90
2023-02-22T17:22:18.260Z,13.00
2023-02-22T17:24:49.953Z,9.70
2023-02-22T17:27:21.647Z,11.30
2023-02-22T17:29:53.384Z,9.47
2023-02-22T17:32:25.216Z,13.90
2023-02-22T17:34:56.928Z,8.57
2023-02-22T17:37:28.616Z,10.93
2023-02-22T17:40:00.294Z,9.83
2023-02-22T17:42:32.090Z,10.30
2023-02-22T17:45:03.916Z,10.73
2023-02-22T17:47:35.675Z,11.03
2023-02-22T17:50:08.303Z,10.37
2023-02-22T17:52:40.010Z,14.93
2023-02-22T17:55:13.037Z,15.90
2023-02-22T17:57:45.644Z,11.23
2023-02-22T18:00:23.567Z,11.93
2023-02-22T18:02:55.437Z,14.43
2023-02-22T18:05:28.122Z,13.10
2023-02-22T18:08:00.329Z,16.73
2023-02-22T18:10:32.124Z,17.67
2023-02-22T18:13:04.132Z,16.30
2023-02-22T18:15:35.877Z,11.60
2023-02-22T18:18:07.645Z,16.13
2023-02-22T18:20:46.484Z,14.35
2023-02-22T18:23:22.146Z,15.60
2023-02-22T18:26:09.589Z,13.27
2023-02-22T18:28:41.896Z,11.87
2023-02-22T18:31:16.748Z,20.50
2023-02-22T18:33:50.804Z,30.80
2023-02-22T18:36:22.897Z,37.13
2023-02-22T18:38:55.486Z,23.37
2023-02-22T18:41:28.431Z,21.27
2023-02-22T18:44:00.835Z,20.25
2023-02-22T18:46:32.940Z,16.20
2023-02-22T18:49:04.674Z,10.87
2023-02-22T18:51:36.368Z,13.97
2023-02-22T18:54:08.085Z,9.50
2023-02-22T18:56:40.506Z,15.73
2023-02-22T18:59:12.456Z,14.63
2023-02-22T19:01:48.915Z,15.07
2023-02-22T19:04:21.896Z,17.67
2023-02-22T19:06:57.580Z,19.00
2023-02-22T19:09:30.634Z,14.27
2023-02-22T19:12:02.853Z,12.70
2023-02-22T19:14:34.873Z,13.33
2023-02-22T19:17:07.288Z,13.50
2023-02-22T19:19:39.004Z,14.75
2023-02-22T19:22:15.112Z,17.63
2023-02-22T19:24:47.115Z,18.03
2023-02-22T19:27:18.817Z,16.80
2023-02-22T19:29:50.594Z,17.27
2023-02-22T19:32:23.463Z,16.27
2023-02-22T19:35:02.069Z,14.00
2023-02-22T19:37:34.912Z,19.40
2023-02-22T19:40:09.480Z,17.55
2023-02-22T19:42:41.225Z,22.53
2023-02-22T19:45:13.125Z,17.00
2023-02-22T19:47:46.455Z,23.73
2023-02-22T19:50:18.849Z,23.23
2023-02-22T19:52:50.620Z,20.40
2023-02-22T19:55:22.407Z,17.27
2023-02-22T19:57:54.134Z,17.70
2023-02-22T20:00:27.061Z,14.83
2023-02-22T20:03:05.768Z,13.23
2023-02-22T20:05:41.478Z,18.63
2023-02-22T20:08:13.194Z,12.13
2023-02-22T20:10:46.439Z,17.00
2023-02-22T20:13:18.129Z,20.10
2023-02-22T20:15:50.732Z,15.30
2023-02-22T20:18:23.044Z,13.70
2023-02-22T20:20:54.713Z,17.13
2023-02-22T20:23:26.463Z,18.70
2023-02-22T20:25:58.136Z,18.83
2023-02-22T20:28:29.951Z,21.93
2023-02-22T20:31:01.676Z,16.17
2023-02-22T20:33:34.567Z,15.77
2023-02-22T20:36:06.860Z,25.00
2023-02-22T20:38:39.266Z,24.70
2023-02-22T20:41:15.794Z,25.77
2023-02-22T20:43:55.301Z,17.70
2023-02-22T20:46:31.460Z,25.50
2023-02-22T20:49:07.120Z,22.40
2023-02-22T20:51:42.059Z,23.83
2023-02-22T20:54:14.137Z,21.50
2023-02-22T20:56:47.644Z,21.60
2023-02-22T20:59:20.219Z,31.83
2023-02-22T21:01:53.053Z,21.67
2023-02-22T21:04:24.950Z,22.43
2023-02-22T21:06:56.834Z,27.58
2023-02-22T21:09:29.064Z,28.40
2023-02-22T21:12:00.987Z,29.13
2023-02-22T21:14:33.010Z,30.50
2023-02-22T21:17:05.257Z,29.73
2023-02-22T21:19:37.221Z,27.50
2023-02-22T21:22:09.324Z,28.73
2023-02-22T21:24:41.161Z,24.63
2023-02-22T21:27:12.914Z,27.70
2023-02-22T21:29:44.664Z,26.63
2023-02-22T21:32:16.536Z,29.97
2023-02-22T21:34:48.472Z,30.50
2023-02-22T21:37:20.197Z,25.03
2023-02-22T21:39:52.142Z,28.90
2023-02-22T21:42:23.791Z,29.57
2023-02-22T21:44:56.358Z,29.58
2023-02-22T21:47:31.071Z,33.00
2023-02-22T21:50:02.836Z,44.20
2023-02-22T21:52:34.563Z,41.90
2023-02-22T21:55:06.855Z,37.20
2023-02-22T21:57:38.793Z,33.30
2023-02-22T22:00:18.387Z,40.70
2023-02-22T22:02:50.084Z,30.43
2023-02-22T22:05:32.856Z,28.23
2023-02-22T22:08:07.773Z,27.70
2023-02-22T22:10:39.433Z,30.00
2023-02-22T22:13:11.148Z,32.20
2023-02-22T22:15:43.073Z,34.53
2023-02-22T22:18:14.984Z,31.63
2023-02-22T22:20:51.568Z,29.77
2023-02-22T22:23:23.314Z,26.70
2023-02-22T22:26:02.193Z,30.70
2023-02-22T22:28:33.850Z,30.20
2023-02-22T22:31:05.956Z,26.70
2023-02-22T22:33:40.016Z,31.30
2023-02-22T22:36:14.652Z,39.50
2023-02-22T22:38:47.050Z,36.93
2023-02-22T22:41:20.848Z,35.20
2023-02-22T22:43:54.031Z,42.50
2023-02-22T22:46:25.811Z,31.47
2023-02-22T22:48:58.250Z,32.47
2023-02-22T22:51:33.569Z,38.93
2023-02-22T22:54:09.377Z,39.87
2023-02-22T22:56:41.269Z,35.40
2023-02-22T22:59:13.482Z,34.73
2023-02-22T23:01:45.349Z,39.87
2023-02-22T23:04:17.502Z,35.87
2023-02-22T23:06:51.048Z,35.80
2023-02-22T23:09:34.814Z,37.93
2023-02-22T23:12:10.144Z,38.80
2023-02-22T23:14:46.673Z,34.80
2023-02-22T23:17:31.290Z,36.47
2023-02-22T23:20:11.134Z,33.53
2023-02-22T23:22:46.977Z,36.40
2023-02-22T23:25:19.825Z,34.33
2023-02-22T23:27:53.873Z,38.57
2023-02-22T23:30:26.654Z,31.73
2023-02-22T23:33:01.173Z,30.40
2023-02-22T23:35:33.209Z,36.30
2023-02-22T23:38:08.070Z,33.40
2023-02-22T23:40:40.449Z,34.53
2023-02-22T23:43:12.201Z,33.30
2023-02-22T23:45:47.697Z,35.73
2023-02-22T23:48:20.505Z,41.07
2023-02-22T23:50:52.264Z,32.13
2023-02-22T23:53:25.836Z,28.83
2023-02-22T23:55:58.171Z,28.00
2023-02-22T23:58:31.802Z,39.23
